Time;durP1;ratioP1;P1;durP2;ratioP2;P2;SDS_P1;SDS_P2;PMS_P1;PMS_P2;Temp;Humidity;BMP_temperature;BMP_pressure;BME280_temperature;BME280_humidity;BME280_pressure;Samples;Min_cycle;Max_cycle;Signal;HPM_P1;HPM_P2
2021/01/14 00:00:40;;;;;;;18.23;8.48;;;;;;;-0.53;82.18;98462.91;1741368;78;21528;-81
2021/01/14 00:03:12;;;;;;;22.27;8.03;;;;;;;-0.58;81.99;98458.16;1718607;79;21259;-80
2021/01/14 00:05:41;;;;;;;18.25;7.42;;;;;;;-0.58;82.36;98457.31;1696782;79;21081;-80
2021/01/14 00:08:10;;;;;;;18.90;8.70;;;;;;;-0.54;82.48;98465.01;1738689;78;21265;-81
2021/01/14 00:10:38;;;;;;;17.92;7.22;;;;;;;-0.61;82.44;98459.00;1787147;79;21272;-81
2021/01/14 00:13:10;;;;;;;20.00;8.30;;;;;;;-0.57;81.86;98465.00;1787120;79;21242;-83
2021/01/14 00:15:38;;;;;;;17.17;7.55;;;;;;;-0.49;81.91;98470.18;1746196;77;21271;-75
2021/01/14 00:18:12;;;;;;;14.18;6.92;;;;;;;-0.52;82.13;98464.60;1680828;78;21362;31
2021/01/14 00:20:40;;;;;;;17.27;6.60;;;;;;;-0.49;81.75;98463.80;1733803;81;21339;-82
2021/01/14 00:23:08;;;;;;;16.10;6.55;;;;;;;-0.46;81.67;98471.06;1733968;81;21600;-82
2021/01/14 00:25:35;;;;;;;19.35;6.20;;;;;;;-0.42;81.87;98470.65;1740290;81;21275;-80
2021/01/14 00:28:23;;;;;;;29.07;10.35;;;;;;;-0.39;81.93;98473.25;1744927;78;21544;31
2021/01/14 00:30:50;;;;;;;22.00;7.65;;;;;;;-0.37;81.88;98465.17;1740132;79;21246;-81
2021/01/14 00:33:18;;;;;;;18.27;7.90;;;;;;;-0.41;82.02;98463.44;1725853;79;21242;-81
2021/01/14 00:35:46;;;;;;;17.20;7.25;;;;;;;-0.36;82.15;98454.53;1716919;78;21298;-82
2021/01/14 00:38:14;;;;;;;16.60;6.92;;;;;;;-0.36;81.86;98464.31;1720007;79;21272;-80
2021/01/14 00:40:42;;;;;;;14.28;6.60;;;;;;;-0.37;81.91;98466.45;1718351;79;21275;-80
2021/01/14 00:43:12;;;;;;;18.07;6.78;;;;;;;-0.35;82.04;98462.21;1755325;77;21231;-82
2021/01/14 00:45:39;;;;;;;22.82;7.00;;;;;;;-0.35;81.83;98454.55;1771774;77;21281;-82
2021/01/14 00:51:41;;;;;;;17.95;7.47;;;;;;;-0.38;81.28;98458.77;1716207;78;21287;-80
2021/01/14 00:54:09;;;;;;;20.50;7.92;;;;;;;-0.38;81.38;98454.51;1700705;80;21371;-76
2021/01/14 00:56:38;;;;;;;14.53;6.53;;;;;;;-0.38;81.14;98449.40;1748378;78;21334;-77
2021/01/14 00:59:07;;;;;;;20.77;7.28;;;;;;;-0.38;81.43;98440.46;1763030;77;22810;-79
2021/01/14 01:01:40;;;;;;;16.32;7.60;;;;;;;-0.43;81.43;98445.54;1719395;83;21252;-82
2021/01/14 01:04:09;;;;;;;14.98;6.47;;;;;;;-0.42;81.20;98437.45;1773564;77;21264;-76
2021/01/14 01:06:39;;;;;;;15.75;6.35;;;;;;;-0.47;81.27;98442.96;1772339;81;21549;-82
2021/01/14 01:09:10;;;;;;;18.37;7.50;;;;;;;-0.43;81.27;98439.59;1741974;82;21244;-82
2021/01/14 01:11:48;;;;;;;14.27;6.40;;;;;;;-0.47;81.24;98429.77;1739547;81;21604;31
2021/01/14 01:14:16;;;;;;;16.90;7.25;;;;;;;-0.50;81.24;98436.10;1764370;79;21310;-77
2021/01/14 01:16:57;;;;;;;15.65;7.00;;;;;;;-0.46;81.19;98436.99;1740252;78;21288;31
2021/01/14 01:19:25;;;;;;;19.42;7.20;;;;;;;-0.46;80.97;98435.72;1702964;80;21402;-79
2021/01/14 01:21:52;;;;;;;15.68;7.05;;;;;;;-0.46;80.93;98426.78;1740557;79;21287;-78
2021/01/14 01:24:20;;;;;;;13.72;5.90;;;;;;;-0.46;80.62;98430.21;1724735;80;21158;-81
2021/01/14 01:26:52;;;;;;;9.85;4.78;;;;;;;-0.44;80.66;98426.37;1683057;80;21244;-82
2021/01/14 01:29:23;;;;;;;14.50;5.33;;;;;;;-0.51;79.14;98432.28;1673947;82;21277;31
2021/01/14 01:31:51;;;;;;;11.95;4.90;;;;;;;-0.42;80.33;98419.57;1745569;82;21271;-82
2021/01/14 01:34:18;;;;;;;14.00;6.10;;;;;;;-0.46;79.66;98411.06;1781877;78;21259;-80
2021/01/14 01:36:51;;;;;;;9.83;5.47;;;;;;;-0.42;79.96;98430.67;1751665;79;21295;-80
2021/01/14 01:39:19;;;;;;;10.25;4.58;;;;;;;-0.44;78.52;98423.41;1765568;78;21235;-80
2021/01/14 01:41:47;;;;;;;12.98;4.75;;;;;;;-0.39;78.53;98417.05;1765354;78;21272;-81
2021/01/14 01:44:15;;;;;;;11.88;4.35;;;;;;;-0.35;78.52;98413.69;1688995;78;21367;-77
2021/01/14 01:46:42;;;;;;;17.30;5.60;;;;;;;-0.35;78.02;98412.41;1711808;78;21338;-80
2021/01/14 01:49:10;;;;;;;16.37;5.78;;;;;;;-0.39;78.65;98414.50;1760410;77;21157;-81
2021/01/14 01:51:43;;;;;;;11.35;5.65;;;;;;;-0.39;79.24;98411.10;1753278;78;21339;31
2021/01/14 01:54:25;;;;;;;16.87;6.60;;;;;;;-0.34;79.51;98411.97;1689033;79;21289;31
2021/01/14 01:57:04;;;;;;;14.73;6.22;;;;;;;-0.37;79.78;98409.41;1695675;80;21280;31
2021/01/14 01:59:33;;;;;;;16.15;7.25;;;;;;;-0.36;79.85;98405.57;1745709;78;21272;-82
2021/01/14 02:02:27;;;;;;;12.65;5.78;;;;;;;-0.37;79.87;98398.77;1756199;79;21154;-82
2021/01/14 02:05:07;;;;;;;13.40;5.87;;;;;;;-0.35;79.92;98397.08;1753830;76;21282;31
2021/01/14 02:11:00;;;;;;;11.85;5.83;;;;;;;-0.42;78.98;98382.55;1729023;78;21157;-82
2021/01/14 02:13:55;;;;;;;10.95;5.10;;;;;;;-0.41;78.96;98382.98;1660685;84;21324;-81
2021/01/14 02:16:23;;;;;;;16.30;5.75;;;;;;;-0.38;79.34;98372.78;1690461;80;21277;-81
2021/01/14 02:18:56;;;;;;;10.08;5.05;;;;;;;-0.40;79.01;98371.91;1698077;81;21255;-80
2021/01/14 02:21:26;;;;;;;12.03;5.10;;;;;;;-0.56;78.20;98368.82;1703762;81;23184;-78
2021/01/14 02:24:11;;;;;;;9.98;4.40;;;;;;;-0.50;78.50;98374.82;1720669;79;21533;-80
2021/01/14 02:26:53;;;;;;;11.20;5.28;;;;;;;-0.49;78.07;98368.03;1724358;78;21248;31
2021/01/14 02:29:21;;;;;;;22.57;8.20;;;;;;;-0.47;78.36;98364.64;1727923;80;21272;-83
2021/01/14 02:31:49;;;;;;;16.57;7.97;;;;;;;-0.54;78.83;98350.54;1704204;79;21230;-81
2021/01/14 02:34:17;;;;;;;16.82;7.25;;;;;;;-0.48;79.27;98346.75;1730590;78;21894;-82
2021/01/14 02:36:44;;;;;;;12.15;6.87;;;;;;;-0.54;79.42;98349.27;1758019;78;21276;-83
2021/01/14 02:39:13;;;;;;;15.80;5.70;;;;;;;-0.58;79.77;98343.70;1770826;77;21342;-76
2021/01/14 02:41:41;;;;;;;12.98;5.37;;;;;;;-0.64;79.50;98342.83;1724101;79;21254;-82
2021/01/14 02:44:09;;;;;;;12.93;5.30;;;;;;;-0.67;79.43;98345.78;1753792;78;21142;-80
2021/01/14 02:46:37;;;;;;;8.40;4.33;;;;;;;-0.68;78.70;98340.22;1717227;78;21277;-81
2021/01/14 02:49:08;;;;;;;12.07;5.12;;;;;;;-0.71;78.94;98331.28;1707805;78;21265;-80
2021/01/14 02:51:50;;;;;;;10.70;5.20;;;;;;;-0.71;79.03;98327.45;1684141;80;21694;-81
2021/01/14 02:54:37;;;;;;;14.68;5.17;;;;;;;-0.78;78.71;98311.22;1716159;78;21378;31
2021/01/14 02:57:08;;;;;;;13.70;6.60;;;;;;;-0.72;78.58;98324.02;1724674;78;21277;-82
2021/01/14 02:59:39;;;;;;;17.12;6.78;;;;;;;-0.73;78.99;98322.33;1681658;78;21173;31
2021/01/14 03:02:27;;;;;;;13.50;5.85;;;;;;;-0.69;79.15;98325.34;1662023;81;21669;31
2021/01/14 03:04:55;;;;;;;15.63;6.15;;;;;;;-0.73;79.25;98317.66;1683959;83;21191;-81
2021/01/14 03:07:23;;;;;;;20.17;6.25;;;;;;;-0.76;78.45;98315.06;1709348;79;21173;-80
2021/01/14 03:09:51;;;;;;;14.53;5.05;;;;;;;-0.72;78.54;98311.69;1753643;81;21310;-80
2021/01/14 03:12:18;;;;;;;14.20;5.10;;;;;;;-0.70;77.93;98310.00;1749492;82;21184;-80
2021/01/14 03:14:46;;;;;;;14.23;5.58;;;;;;;-0.72;76.44;98297.65;1749025;82;22312;-81
2021/01/14 03:17:14;;;;;;;14.65;5.22;;;;;;;-0.63;77.71;98299.00;1753511;81;21291;-81
2021/01/14 03:19:43;;;;;;;14.87;5.22;;;;;;;-0.69;75.97;98301.08;1701961;81;21377;-78
2021/01/14 03:22:34;;;;;;;12.07;5.40;;;;;;;-0.63;76.84;98298.57;1743088;79;21231;31
2021/01/14 03:25:15;;;;;;;9.47;4.60;;;;;;;-0.62;76.24;98297.75;1736890;78;21588;31
2021/01/14 03:27:47;;;;;;;11.95;5.53;;;;;;;-0.56;76.59;98297.33;1747540;79;24026;31
2021/01/14 03:30:16;;;;;;;15.23;4.95;;;;;;;-0.56;76.57;98282.86;1741749;78;21316;-80
2021/01/14 03:32:44;;;;;;;14.38;5.42;;;;;;;-0.52;77.00;98282.03;1738456;79;21268;-75
2021/01/14 03:35:14;;;;;;;17.12;5.12;;;;;;;-0.50;75.94;98285.45;1753426;77;21116;-83
2021/01/14 03:37:43;;;;;;;13.60;4.65;;;;;;;-0.47;76.01;98282.93;1742958;76;21354;-79
2021/01/14 03:40:12;;;;;;;11.33;4.72;;;;;;;-0.45;75.51;98278.69;1744652;80;21271;-81
2021/01/14 03:42:40;;;;;;;19.92;6.10;;;;;;;-0.38;76.95;98277.01;1747855;80;21329;-78
2021/01/14 03:45:09;;;;;;;9.20;4.55;;;;;;;-0.37;76.14;98275.33;1766727;78;21296;-81
2021/01/14 03:47:36;;;;;;;9.90;4.25;;;;;;;-0.37;76.26;98271.06;1799588;77;21249;-82
2021/01/14 03:50:07;;;;;;;11.68;4.80;;;;;;;-0.41;76.99;98253.59;1753545;79;21220;-78
2021/01/14 03:55:37;;;;;;;7.58;4.25;;;;;;;-0.29;77.66;98260.89;1714606;78;21194;-81
2021/01/14 03:58:12;;;;;;;8.85;4.50;;;;;;;-0.28;78.08;98250.69;1761691;78;21581;31
2021/01/14 04:00:41;;;;;;;10.88;5.00;;;;;;;-0.31;78.35;98254.49;1676196;78;21146;-80
2021/01/14 04:03:08;;;;;;;10.50;4.78;;;;;;;-0.32;78.62;98250.25;1665048;80;21296;-81
2021/01/14 04:05:36;;;;;;;16.25;5.37;;;;;;;-0.30;78.93;98243.84;1720405;78;21434;-84
2021/01/14 04:08:04;;;;;;;17.80;6.10;;;;;;;-0.26;78.75;98243.02;1726578;81;21074;-81
2021/01/14 04:10:38;;;;;;;12.47;4.40;;;;;;;-0.25;78.96;98238.34;1735281;78;21286;31
2021/01/14 04:13:06;;;;;;;10.58;5.67;;;;;;;-0.25;79.20;98246.02;1754645;77;21273;-80
2021/01/14 04:15:38;;;;;;;9.83;4.63;;;;;;;-0.28;79.72;98230.66;1748895;78;21174;31
2021/01/14 04:18:11;;;;;;;13.43;4.78;;;;;;;-0.29;79.68;98232.80;1804584;79;21163;31
2021/01/14 04:20:39;;;;;;;;;;;;;;;-0.35;80.12;98231.06;1768027;78;21261;-73
2021/01/14 04:23:07;;;;;;;11.57;4.90;;;;;;;-0.39;80.51;98228.06;1691048;83;20626;-80
2021/01/14 04:25:34;;;;;;;11.40;5.25;;;;;;;-0.39;80.50;98234.88;1691169;83;21174;-81
2021/01/14 04:28:04;;;;;;;9.98;5.05;;;;;;;-0.49;80.86;98223.34;1722320;79;21267;-78
2021/01/14 04:30:34;;;;;;;12.03;5.30;;;;;;;-0.53;80.81;98220.77;1728030;81;21273;-80
2021/01/14 04:33:12;;;;;;;12.10;5.40;;;;;;;-0.51;80.60;98226.73;1701762;80;21287;-82
2021/01/14 04:35:55;;;;;;;24.35;7.00;;;;;;;-0.61;81.28;98216.47;1722366;80;21256;-80
2021/01/14 04:38:29;;;;;;;16.17;6.75;;;;;;;-0.73;83.04;98211.30;1748262;78;21369;31
2021/01/14 04:41:03;;;;;;;13.78;6.47;;;;;;;-0.73;82.23;98203.64;1716943;79;21157;-78
2021/01/14 04:43:33;;;;;;;11.28;6.10;;;;;;;-0.76;82.25;98208.71;1712795;78;21173;-81
2021/01/14 04:46:07;;;;;;;16.35;6.20;;;;;;;-0.84;83.11;98197.61;1713165;78;21121;-80
2021/01/14 04:48:36;;;;;;;;;;;;;;;-0.98;85.53;98196.67;1696878;79;21545;-81
2021/01/14 04:51:12;;;;;;;13.40;6.40;;;;;;;-1.02;85.55;98192.81;1651665;83;20202;-81
2021/01/14 04:53:43;;;;;;;17.02;6.65;;;;;;;-1.02;85.50;98187.71;1721575;77;21557;-82
2021/01/14 04:56:12;;;;;;;11.90;6.20;;;;;;;-1.14;86.96;98186.36;1724429;79;21211;-81
2021/01/14 04:58:46;;;;;;;15.78;7.17;;;;;;;-1.08;86.31;98187.67;1741631;78;21265;-82
2021/01/14 05:01:25;;;;;;;13.15;6.33;;;;;;;-1.09;85.76;98188.53;1797209;78;21244;-83
2021/01/14 05:10:17;;;;;;;15.15;7.22;;;;;;;-1.19;87.48;98180.39;1763882;78;21176;-78
2021/01/14 05:12:45;;;;;;;17.02;7.33;;;;;;;-1.17;86.84;98178.70;1789659;78;21117;-81
2021/01/14 05:15:15;;;;;;;13.98;7.03;;;;;;;-1.24;87.67;98179.06;1711168;79;21147;-81
2021/01/14 05:17:43;;;;;;;12.65;6.08;;;;;;;-1.25;87.75;98182.90;1627902;86;21270;-82
2021/01/14 05:20:12;;;;;;;19.55;7.50;;;;;;;-1.25;87.54;98182.47;1648379;85;21175;-82
2021/01/14 05:22:42;;;;;;;23.27;7.22;;;;;;;-1.23;87.64;98182.48;1650486;83;21277;-80
2021/01/14 05:28:22;;;;;;;15.75;7.35;;;;;;;-1.20;86.76;98175.69;1779720;79;21154;-82
2021/01/14 05:30:52;;;;;;;17.73;7.30;;;;;;;-1.20;86.97;98168.47;1774082;79;21475;-82
2021/01/14 05:33:22;;;;;;;16.75;7.30;;;;;;;-1.17;87.14;98168.89;1774358;78;21295;-81
2021/01/14 05:39:12;;;;;;;18.40;7.10;;;;;;;-1.18;87.16;98164.66;1751084;80;21178;-82
2021/01/14 05:41:41;;;;;;;13.53;6.47;;;;;;;-1.22;86.50;98155.69;1801875;78;21260;-82
2021/01/14 05:44:09;;;;;;;13.83;7.75;;;;;;;-1.20;86.28;98164.20;1760526;78;21297;-83
2021/01/14 05:46:36;;;;;;;11.85;6.15;;;;;;;-1.19;86.41;98167.64;1730999;78;21269;-81
2021/01/14 05:49:08;;;;;;;14.45;6.65;;;;;;;-1.14;85.77;98157.45;1759612;77;21276;-82
2021/01/14 05:51:44;;;;;;;15.05;6.97;;;;;;;-1.13;85.81;98162.58;1765534;77;22407;31
2021/01/14 05:54:12;;;;;;;21.10;8.43;;;;;;;-1.10;85.76;98162.58;1716657;80;21261;-81
2021/01/14 05:56:50;;;;;;;13.00;6.28;;;;;;;-1.08;85.75;98172.80;1765449;80;21118;-83
2021/01/14 05:59:23;;;;;;;14.53;5.80;;;;;;;-1.04;85.55;98171.54;1752462;79;21470;-80
2021/01/14 06:01:57;;;;;;;11.57;5.58;;;;;;;-0.97;85.55;98169.05;1688200;84;22511;-80
2021/01/14 06:04:29;;;;;;;;;;;;;;;-1.17;85.87;98140.84;1674822;84;21265;-82
2021/01/14 06:07:04;;;;;;;10.40;4.72;;;;;;;-0.91;85.47;98172.92;1672014;84;20291;-80
2021/01/14 06:09:44;;;;;;;13.25;4.70;;;;;;;-0.88;85.31;98181.42;1675766;85;21272;-81
2021/01/14 06:12:13;;;;;;;8.43;4.50;;;;;;;-0.88;85.40;98176.75;1682831;85;21332;-79
2021/01/14 06:14:41;;;;;;;9.03;4.97;;;;;;;-0.85;85.44;98171.67;1677632;84;21325;-81
2021/01/14 06:17:13;;;;;;;11.30;4.35;;;;;;;-0.82;85.41;98167.84;1683230;83;21280;-82
2021/01/14 06:19:41;;;;;;;16.35;6.95;;;;;;;-0.85;86.11;98167.84;1668334;84;21265;-82
2021/01/14 06:22:14;;;;;;;14.55;6.83;;;;;;;-0.89;86.25;98170.80;1782085;76;21229;-82
2021/01/14 06:24:44;;;;;;;19.23;8.10;;;;;;;-0.88;86.19;98174.19;1809800;77;21315;-83
2021/01/14 06:27:12;;;;;;;16.55;7.28;;;;;;;-0.92;86.43;98166.94;1823842;77;21138;-83
2021/01/14 06:29:43;;;;;;;16.40;7.42;;;;;;;-0.92;86.36;98173.31;1824427;75;21260;-82
2021/01/14 06:32:20;;;;;;;18.57;9.05;;;;;;;-0.93;86.55;98173.33;1824610;78;21412;-82
2021/01/14 06:34:52;;;;;;;17.05;7.72;;;;;;;-0.95;86.94;98173.75;1824505;76;21531;-83
2021/01/14 06:37:26;;;;;;;15.28;8.00;;;;;;;-0.98;87.67;98182.64;1800069;75;21236;-80
2021/01/14 06:39:59;;;;;;;20.15;8.75;;;;;;;-0.97;87.39;98189.03;1789421;79;21074;-81
2021/01/14 06:42:29;;;;;;;19.12;8.88;;;;;;;-0.97;87.79;98190.74;1789398;79;21208;-82
2021/01/14 06:45:11;;;;;;;20.20;8.03;;;;;;;-1.01;88.32;98197.52;1788141;79;21240;-81
2021/01/14 06:47:45;;;;;;;17.85;8.03;;;;;;;-1.14;87.50;98159.58;1788620;80;21145;-82
2021/01/14 06:50:23;;;;;;;17.20;7.80;;;;;;;-0.89;87.23;98191.21;1791478;79;21236;-83
2021/01/14 06:53:11;;;;;;;22.82;9.00;;;;;;;-0.91;87.50;98179.30;1762551;81;21475;-82
2021/01/14 06:55:49;;;;;;;22.15;9.75;;;;;;;-0.91;87.97;98176.75;1760332;79;21218;31
2021/01/14 06:58:19;;;;;;;23.62;9.55;;;;;;;-0.89;88.06;98174.63;1746588;79;21287;-82
2021/01/14 07:00:50;;;;;;;23.42;10.28;;;;;;;-0.94;88.35;98169.91;1745764;79;21546;-85
2021/01/14 07:03:21;;;;;;;19.57;10.28;;;;;;;-0.91;88.16;98169.94;1727216;77;21263;-81
2021/01/14 07:05:58;;;;;;;22.85;9.20;;;;;;;-0.91;88.32;98167.81;1723307;80;21119;-80
2021/01/14 07:08:52;;;;;;;17.02;8.45;;;;;;;-0.85;87.51;98162.74;1739646;78;21309;31
2021/01/14 07:11:24;;;;;;;25.02;8.48;;;;;;;-0.92;88.59;98165.66;1741873;81;21305;-82
2021/01/14 07:13:53;;;;;;;18.77;8.55;;;;;;;-0.86;87.36;98159.31;1747973;81;21306;-81
2021/01/14 07:16:23;;;;;;;19.07;7.72;;;;;;;-0.84;87.27;98166.98;1724742;81;21330;-82
2021/01/14 07:19:02;;;;;;;24.30;9.55;;;;;;;-0.81;87.46;98161.91;1721954;78;21266;31
2021/01/14 07:21:36;;;;;;;19.62;8.75;;;;;;;-0.81;87.64;98164.03;1755445;78;22423;-81
2021/01/14 07:24:25;;;;;;;22.10;9.45;;;;;;;-0.86;88.00;98163.57;1723159;80;21322;31
2021/01/14 07:27:18;;;;;;;17.85;8.15;;;;;;;-0.77;87.75;98162.36;1696960;82;21151;-84
2021/01/14 07:30:08;;;;;;;14.83;7.42;;;;;;;-0.77;87.35;98164.91;1696359;81;22105;-83
2021/01/14 07:56:23;;;;;;;20.70;8.37;;;;;;;-0.43;85.08;98171.02;1710780;79;21168;31
2021/01/14 08:18:03;;;;;;;47.58;20.32;;;;;;;-0.12;83.09;98158.36;1741275;78;23797;31
2021/01/14 08:25:02;;;;;;;17.10;7.03;;;;;;;0.03;82.42;98162.63;1682214;81;21319;31
2021/01/14 08:31:38;;;;;;;15.13;6.62;;;;;;;0.05;81.80;98168.60;1687550;80;21274;-83
2021/01/14 08:44:14;;;;;;;14.33;6.50;;;;;;;0.26;80.44;98159.25;1635585;84;21249;31
2021/01/14 08:47:12;;;;;;;14.28;6.10;;;;;;;0.42;81.07;98155.87;1575516;85;21198;-88
2021/01/14 08:53:35;;;;;;;12.68;6.37;;;;;;;0.52;80.03;98147.35;1692172;79;21202;31
2021/01/14 08:56:08;;;;;;;18.02;6.45;;;;;;;0.43;79.47;98147.77;1653906;82;21972;-84
2021/01/14 08:58:47;;;;;;;13.53;5.65;;;;;;;0.46;79.18;98144.80;1686076;85;21823;-83
2021/01/14 09:01:26;;;;;;;17.85;7.37;;;;;;;0.53;79.58;98137.53;1651930;82;21124;-88
2021/01/14 09:07:10;;;;;;;16.52;6.55;;;;;;;0.65;78.59;98135.83;1705953;83;21110;-90
2021/01/14 09:12:58;;;;;;;17.15;7.12;;;;;;;0.72;78.27;98129.86;1695538;78;21724;-87
2021/01/14 09:15:27;;;;;;;20.12;7.72;;;;;;;0.82;78.39;98126.44;1704526;78;21275;-91
2021/01/14 09:17:58;;;;;;;15.00;5.95;;;;;;;0.99;78.95;98120.86;1696792;79;21491;-86
2021/01/14 09:20:29;;;;;;;21.10;7.33;;;;;;;0.98;77.55;98117.86;1704171;81;21199;-91
2021/01/14 09:30:07;;;;;;;14.03;6.33;;;;;;;1.05;77.38;98112.72;1753340;76;21231;31
2021/01/14 09:36:29;;;;;;;15.23;6.20;;;;;;;1.01;75.36;98097.80;1717591;79;21150;-92
2021/01/14 09:39:20;;;;;;;16.55;6.65;;;;;;;1.21;77.18;98091.33;1753914;80;21114;-92
2021/01/14 09:41:55;;;;;;;13.50;6.12;;;;;;;1.22;76.57;98091.77;1746604;80;21140;-91
2021/01/14 09:44:30;;;;;;;17.92;7.42;;;;;;;1.36;76.64;98087.44;1744564;80;21261;-92
2021/01/14 09:46:59;;;;;;;15.43;6.47;;;;;;;1.23;74.96;98078.53;1732271;81;21304;-92
2021/01/14 09:49:28;;;;;;;13.10;6.30;;;;;;;1.32;76.24;98077.22;1735047;80;21175;-89
2021/01/14 09:51:58;;;;;;;11.38;6.05;;;;;;;1.34;74.84;98081.91;1759698;80;21190;-92
2021/01/14 09:54:27;;;;;;;15.20;6.05;;;;;;;1.39;74.85;98067.35;1745499;79;21265;-90
2021/01/14 09:56:56;;;;;;;15.70;6.97;;;;;;;1.37;74.79;98063.55;1754933;79;21276;-89
2021/01/14 09:59:42;;;;;;;16.27;7.50;;;;;;;1.56;76.22;98055.31;1748441;78;21499;-91
2021/01/14 10:02:24;;;;;;;14.63;6.35;;;;;;;1.61;76.02;98054.44;1749999;80;21297;-89
2021/01/14 10:04:59;;;;;;;19.07;7.78;;;;;;;1.57;74.96;98058.72;1747015;80;21155;-90
2021/01/14 10:07:28;;;;;;;11.10;5.42;;;;;;;1.70;75.60;98047.55;1753333;79;21225;-93
2021/01/14 10:09:59;;;;;;;11.85;6.05;;;;;;;1.71;75.13;98042.86;1754576;79;21252;-91
2021/01/14 10:12:33;;;;;;;9.70;4.35;;;;;;;1.64;74.25;98045.03;1759788;79;22013;-88
2021/01/14 10:15:13;;;;;;;11.60;5.70;;;;;;;1.51;73.38;98036.98;1754531;80;21249;-89
2021/01/14 10:17:42;;;;;;;13.83;6.42;;;;;;;1.61;73.89;98037.34;1760062;80;21867;-91
2021/01/14 10:20:13;;;;;;;14.80;5.75;;;;;;;1.55;73.45;98028.02;1756449;79;21265;-91
2021/01/14 10:22:49;;;;;;;11.28;5.65;;;;;;;1.69;74.87;98020.23;1760575;80;21323;-90
2021/01/14 10:25:20;;;;;;;15.95;7.08;;;;;;;1.72;74.81;98021.48;1752847;80;21251;-92
2021/01/14 10:28:10;;;;;;;15.35;6.45;;;;;;;1.62;74.26;98012.16;1753040;80;21125;-88
2021/01/14 10:30:44;;;;;;;15.00;6.33;;;;;;;1.74;75.00;98014.63;1746700;80;22022;-89
2021/01/14 10:33:10;;;;;;;16.20;5.65;;;;;;;1.75;75.02;98015.07;1752651;79;21302;-90
2021/01/14 10:35:39;;;;;;;11.25;5.83;;;;;;;1.67;73.85;98007.87;1750883;80;21857;-92
2021/01/14 10:38:14;;;;;;;14.23;6.08;;;;;;;1.92;74.59;98008.95;1754300;80;21180;-92
2021/01/14 10:40:47;;;;;;;13.00;4.33;;;;;;;1.87;72.80;98015.41;1755452;81;21249;-86
2021/01/14 10:43:30;;;;;;;;;;;;;;;2.00;73.81;98008.46;1733308;82;21301;-91
2021/01/14 10:45:58;;;;;;;9.63;4.58;;;;;;;1.92;72.16;98015.37;1725289;82;20186;-91
2021/01/14 10:48:41;;;;;;;9.23;4.33;;;;;;;1.96;72.39;98014.03;1759377;81;21268;-88
2021/01/14 10:51:09;;;;;;;9.40;4.60;;;;;;;2.06;73.67;98008.41;1756507;80;21112;-90
2021/01/14 10:53:38;;;;;;;10.85;4.12;;;;;;;2.13;72.80;98014.33;1732875;82;21166;-90
2021/01/14 10:56:12;;;;;;;12.70;4.17;;;;;;;2.13;73.42;98004.94;1760006;80;21658;-91
2021/01/14 10:58:41;;;;;;;16.42;5.15;;;;;;;2.08;73.05;98005.40;1762683;81;21260;-87
2021/01/14 11:01:19;;;;;;;9.03;4.25;;;;;;;1.93;72.18;98005.11;1770443;80;22119;-91
2021/01/14 11:03:49;;;;;;;15.20;4.25;;;;;;;2.06;72.33;97996.87;1747549;79;21158;-91
2021/01/14 11:06:30;;;;;;;10.85;4.20;;;;;;;2.06;73.19;97999.44;1729673;82;21143;-92
2021/01/14 11:09:07;;;;;;;11.70;4.40;;;;;;;1.94;72.33;97996.98;1677166;83;21188;-91
2021/01/14 11:11:35;;;;;;;11.08;3.83;;;;;;;1.92;72.15;97998.27;1763465;81;21162;-91
2021/01/14 11:14:03;;;;;;;9.20;4.08;;;;;;;1.92;72.09;97991.86;1762482;81;21292;-90
2021/01/14 11:16:31;;;;;;;11.43;4.17;;;;;;;1.81;72.05;97991.11;1727956;81;21136;-91
2021/01/14 11:19:01;;;;;;;10.85;3.33;;;;;;;1.98;73.13;97989.68;1704178;82;21159;-91
2021/01/14 11:21:32;;;;;;;7.28;3.35;;;;;;;1.79;72.18;97992.40;1754425;79;21153;-92
2021/01/14 11:24:01;;;;;;;10.05;3.70;;;;;;;1.87;72.81;97987.22;1760892;80;21140;-91
2021/01/14 11:26:29;;;;;;;17.60;4.28;;;;;;;1.77;72.51;97984.28;1743654;80;21325;-91
2021/01/14 11:28:58;;;;;;;12.65;3.87;;;;;;;1.70;72.34;97983.48;1754522;81;21289;-86
2021/01/14 11:31:28;;;;;;;12.47;3.55;;;;;;;1.56;72.37;97989.99;1729920;80;21122;-92
2021/01/14 11:33:57;;;;;;;12.58;4.45;;;;;;;1.55;72.75;97987.02;1766241;80;21273;-92
2021/01/14 11:36:28;;;;;;;12.10;4.62;;;;;;;1.47;73.01;97985.36;1691379;83;21298;-91
2021/01/14 11:38:58;;;;;;;14.60;4.30;;;;;;;1.50;72.96;97974.66;1717652;83;21270;-89
2021/01/14 11:41:26;;;;;;;11.80;5.33;;;;;;;1.64;73.03;97978.41;1751435;81;21172;-91
2021/01/14 11:43:56;;;;;;;18.55;4.33;;;;;;;1.43;73.55;97978.55;1733442;81;21135;-92
2021/01/14 11:46:27;;;;;;;15.93;5.10;;;;;;;1.48;73.59;97979.39;1752514;80;21718;-91
2021/01/14 11:48:55;;;;;;;7.87;3.60;;;;;;;1.40;73.63;97978.16;1749619;80;21269;-92
2021/01/14 11:51:24;;;;;;;12.53;5.05;;;;;;;1.21;73.99;97985.08;1738483;81;21271;-90
2021/01/14 11:53:53;;;;;;;16.97;4.67;;;;;;;1.26;74.55;97979.95;1738159;82;21281;-91
2021/01/14 11:56:24;;;;;;;11.10;4.87;;;;;;;1.28;74.77;97984.20;1737404;81;21268;-91
2021/01/14 11:58:53;;;;;;;13.62;4.97;;;;;;;1.31;75.26;97991.88;1752766;79;21241;-91
2021/01/14 12:01:24;;;;;;;8.70;4.47;;;;;;;1.21;75.71;97984.23;1746622;81;21162;-85
2021/01/14 12:03:51;;;;;;;10.20;4.20;;;;;;;1.12;76.48;97982.59;1747753;80;21360;-91
2021/01/14 12:06:19;;;;;;;9.58;3.87;;;;;;;1.15;75.97;97985.11;1747823;80;21159;-88
2021/01/14 12:08:48;;;;;;;11.00;4.30;;;;;;;1.13;75.96;97979.16;1748210;80;21130;-90
2021/01/14 12:11:20;;;;;;;12.90;4.47;;;;;;;1.03;76.64;97980.91;1748958;80;22076;-88
2021/01/14 12:13:47;;;;;;;10.25;4.62;;;;;;;0.94;77.31;97990.77;1750912;80;21241;-84
2021/01/14 12:16:15;;;;;;;10.48;3.77;;;;;;;0.88;77.64;97992.52;1753570;80;21289;-88
2021/01/14 12:18:43;;;;;;;8.88;3.87;;;;;;;0.85;77.51;97992.07;1745939;80;21277;-84
2021/01/14 12:21:16;;;;;;;10.13;4.10;;;;;;;0.69;78.69;97989.16;1753888;80;21267;-84
2021/01/14 12:23:53;;;;;;;9.23;4.17;;;;;;;0.78;78.60;97989.98;1819565;77;22951;-84
2021/01/14 12:26:21;;;;;;;11.30;4.35;;;;;;;0.57;79.14;97992.60;1808289;78;21157;-84
2021/01/14 12:28:50;;;;;;;8.70;4.20;;;;;;;0.52;79.18;97987.51;1810277;77;21153;-84
2021/01/14 12:31:18;;;;;;;9.05;4.08;;;;;;;0.55;79.03;97985.36;1806406;78;21547;-83
2021/01/14 12:33:46;;;;;;;8.10;3.87;;;;;;;0.43;79.26;97983.69;1819776;77;21302;-85
2021/01/14 12:36:18;;;;;;;11.33;4.33;;;;;;;0.43;79.28;97984.96;1807149;76;21126;-83
2021/01/14 12:38:47;;;;;;;7.53;3.80;;;;;;;0.32;80.67;97990.11;1775156;78;21252;-84
2021/01/14 12:41:15;;;;;;;12.82;4.87;;;;;;;0.34;80.48;97989.68;1736077;79;21166;-83
2021/01/14 12:43:43;;;;;;;10.70;5.10;;;;;;;0.29;81.00;97995.22;1735811;79;21333;-83
2021/01/14 12:46:11;;;;;;;11.88;4.83;;;;;;;0.31;81.40;97996.50;1670841;84;21151;-83
2021/01/14 12:48:39;;;;;;;11.65;4.92;;;;;;;0.33;80.91;97998.63;1662748;85;21411;-82
2021/01/14 12:51:09;;;;;;;8.80;5.12;;;;;;;0.30;81.10;98003.33;1672702;82;21470;-85
2021/01/14 12:53:39;;;;;;;13.75;5.80;;;;;;;0.25;81.89;97998.63;1680417;84;21325;-83
2021/01/14 12:56:07;;;;;;;16.45;7.33;;;;;;;0.30;81.03;98007.56;1685991;80;21110;-81
2021/01/14 12:58:35;;;;;;;22.37;8.38;;;;;;;0.36;81.73;98005.87;1695034;79;21773;-81
2021/01/14 13:01:03;;;;;;;18.50;6.78;;;;;;;0.33;82.62;98010.13;1730105;82;21245;-81
2021/01/14 13:03:30;;;;;;;14.73;7.33;;;;;;;0.34;82.60;98009.30;1716417;83;21259;-81
2021/01/14 13:05:59;;;;;;;16.32;7.33;;;;;;;0.39;81.70;98014.80;1728449;82;21162;-82
2021/01/14 13:08:27;;;;;;;22.62;7.90;;;;;;;0.39;82.23;98009.68;1715330;82;21268;-80
2021/01/14 13:10:54;;;;;;;16.57;6.70;;;;;;;0.38;82.15;98006.72;1684149;81;21367;-85
2021/01/14 13:13:22;;;;;;;15.90;6.47;;;;;;;0.34;82.64;98008.86;1746592;82;21824;-84
2021/01/14 13:15:54;;;;;;;14.50;7.22;;;;;;;0.34;82.35;98016.96;1725287;80;21275;-83
2021/01/14 13:18:22;;;;;;;15.32;7.50;;;;;;;0.35;81.84;98014.38;1694889;84;21219;-83
2021/01/14 13:20:50;;;;;;;14.87;6.17;;;;;;;0.35;82.12;98018.65;1703569;80;21276;-82
2021/01/14 13:23:18;;;;;;;12.80;6.30;;;;;;;0.37;82.33;98022.05;1756172;78;21255;-82
2021/01/14 13:25:46;;;;;;;13.80;6.42;;;;;;;0.40;82.36;98020.78;1752427;78;21333;-83
2021/01/14 13:28:14;;;;;;;17.73;6.55;;;;;;;0.34;83.23;98025.91;1761061;78;21251;-84
2021/01/14 13:30:42;;;;;;;15.50;6.53;;;;;;;0.44;82.24;98026.31;1818237;77;21142;-84
2021/01/14 13:33:10;;;;;;;12.93;5.70;;;;;;;0.38;82.84;98026.33;1830863;77;21141;-87
2021/01/14 13:35:38;;;;;;;14.00;5.53;;;;;;;0.31;82.53;98029.73;1824282;76;21568;-84
2021/01/14 13:38:06;;;;;;;13.90;5.67;;;;;;;0.30;82.32;98029.30;1808340;77;21234;-82